Time;durP1;ratioP1;P1;durP2;ratioP2;P2;SDS_P1;SDS_P2;PMS_P1;PMS_P2;Temp;Humidity;BMP_temperature;BMP_pressure;BME280_temperature;BME280_humidity;BME280_pressure;Samples;Min_cycle;Max_cycle;Signal;HPM_P1;HPM_P2
2021/01/30 00:01:06;;;;;;;0.52;0.25;;;5.80;99.90;;;;;;4987661;28;20079;-75
2021/01/30 00:06:09;;;;;;;0.63;0.20;;;5.80;99.90;;;;;;4976445;28;20110;-75
2021/01/30 00:08:35;;;;;;;1.02;0.20;;;5.90;99.90;;;;;;4971514;28;20598;-74
2021/01/30 00:11:00;;;;;;;2.45;0.45;;;5.80;99.90;;;;;;4982609;28;20218;-73
2021/01/30 00:13:26;;;;;;;0.60;0.22;;;5.90;99.90;;;;;;4983232;28;20118;-73
2021/01/30 00:15:51;;;;;;;0.50;0.40;;;5.90;99.90;;;;;;4967294;28;20087;-74
2021/01/30 00:18:17;;;;;;;0.93;0.30;;;5.90;99.90;;;;;;4967474;28;20515;-74
2021/01/30 00:20:42;;;;;;;1.08;0.40;;;5.90;99.90;;;;;;4985867;28;20700;-73
2021/01/30 00:23:08;;;;;;;0.45;0.20;;;6.00;99.90;;;;;;4971196;28;20116;-73
2021/01/30 00:25:35;;;;;;;0.95;0.43;;;6.00;99.90;;;;;;4969131;28;20186;-73
2021/01/30 00:28:02;;;;;;;1.13;0.30;;;6.00;99.90;;;;;;4984996;28;20115;-74
2021/01/30 00:30:29;;;;;;;0.50;0.28;;;6.00;99.90;;;;;;4979581;28;20553;-73
2021/01/30 00:32:56;;;;;;;0.80;0.20;;;6.00;99.90;;;;;;4971564;28;20602;-73
2021/01/30 00:35:24;;;;;;;0.40;0.30;;;6.00;99.90;;;;;;4998034;28;20090;-74
2021/01/30 00:37:50;;;;;;;0.60;0.20;;;6.00;99.90;;;;;;4997947;28;20074;-73
2021/01/30 00:40:17;;;;;;;0.40;0.20;;;6.00;99.90;;;;;;4971819;28;20079;-74
2021/01/30 00:42:43;;;;;;;0.40;0.30;;;6.00;99.90;;;;;;4971026;28;20074;-73
2021/01/30 00:45:11;;;;;;;1.33;0.25;;;6.00;99.90;;;;;;4986337;28;20090;-73
2021/01/30 00:47:37;;;;;;;0.47;0.10;;;6.00;99.90;;;;;;4990652;28;20086;-73
2021/01/30 00:50:04;;;;;;;0.28;0.13;;;5.90;99.90;;;;;;4985272;28;20105;-73
2021/01/30 00:52:30;;;;;;;0.63;0.50;;;5.90;99.90;;;;;;4973436;28;20137;-73
2021/01/30 00:54:55;;;;;;;1.85;0.70;;;5.90;99.90;;;;;;4970654;28;20099;-73
2021/01/30 00:57:21;;;;;;;1.52;0.95;;;5.90;99.90;;;;;;4972280;28;20078;-73
2021/01/30 00:59:47;;;;;;;0.38;0.30;;;5.90;99.90;;;;;;4971819;28;20102;-73
2021/01/30 01:02:12;;;;;;;0.60;0.30;;;5.90;99.90;;;;;;4976757;28;20110;-74
2021/01/30 01:04:38;;;;;;;1.80;0.30;;;5.90;99.90;;;;;;4990910;28;20098;-73
2021/01/30 01:07:04;;;;;;;0.73;0.40;;;5.90;99.90;;;;;;4981736;28;20105;-74
2021/01/30 01:09:30;;;;;;;1.42;0.35;;;5.90;99.90;;;;;;4969196;28;20078;-73
2021/01/30 01:11:55;;;;;;;1.13;0.20;;;5.90;99.90;;;;;;4974367;28;20079;-73
2021/01/30 01:14:24;;;;;;;1.02;0.20;;;5.80;99.90;;;;;;4978918;28;20093;-73
2021/01/30 01:16:50;;;;;;;0.85;0.45;;;5.90;99.90;;;;;;4971284;28;20075;-74
2021/01/30 01:19:16;;;;;;;1.95;0.40;;;5.80;99.90;;;;;;4982311;28;20079;-74
2021/01/30 01:21:42;;;;;;;2.00;0.40;;;5.90;99.90;;;;;;4981069;28;20107;-79
2021/01/30 01:24:08;;;;;;;2.97;0.40;;;5.90;99.90;;;;;;4984474;28;20126;-73
2021/01/30 01:26:34;;;;;;;1.02;0.60;;;5.90;99.90;;;;;;4972583;28;20091;-73
2021/01/30 01:28:59;;;;;;;1.08;0.47;;;5.90;99.90;;;;;;4974089;28;20149;-73
2021/01/30 01:31:25;;;;;;;1.15;0.30;;;5.90;99.90;;;;;;4987957;28;20070;-73
2021/01/30 01:33:51;;;;;;;1.35;0.30;;;5.90;99.90;;;;;;4990371;28;20543;-74
2021/01/30 01:36:19;;;;;;;0.82;0.30;;;5.80;99.90;;;;;;4983402;28;20170;-73
2021/01/30 01:38:45;;;;;;;0.98;0.17;;;5.80;99.90;;;;;;4972368;28;20142;-73
2021/01/30 01:41:12;;;;;;;0.38;0.30;;;5.80;99.90;;;;;;4970499;28;20535;-74
2021/01/30 01:43:38;;;;;;;1.65;0.20;;;5.80;99.90;;;;;;4970787;28;20086;-74
2021/01/30 01:46:20;;;;;;;1.23;0.30;;;5.80;99.90;;;;;;4973279;28;20154;-73
2021/01/30 01:48:55;;;;;;;1.02;0.30;;;5.80;99.90;;;;;;4988777;28;20102;-74
2021/01/30 01:51:43;;;;;;;1.48;0.70;;;5.80;99.90;;;;;;4984566;28;20071;-73
2021/01/30 01:54:15;;;;;;;0.35;0.28;;;5.90;99.90;;;;;;4982200;28;20095;-73
2021/01/30 01:56:41;;;;;;;1.42;0.30;;;5.90;99.90;;;;;;4984196;28;20161;-73
2021/01/30 01:59:14;;;;;;;1.45;0.30;;;5.90;99.90;;;;;;4974208;28;20106;-73
2021/01/30 02:01:39;;;;;;;1.50;0.47;;;5.90;99.90;;;;;;4968888;28;20076;-74
2021/01/30 02:04:09;;;;;;;0.30;0.20;;;5.90;99.90;;;;;;4972756;28;20193;-73
2021/01/30 02:06:37;;;;;;;0.47;0.28;;;5.90;99.90;;;;;;4974702;28;20091;-74
2021/01/30 02:09:09;;;;;;;1.08;0.38;;;6.00;99.90;;;;;;4969123;28;20182;-73
2021/01/30 02:11:35;;;;;;;1.85;0.30;;;6.00;99.90;;;;;;4972534;28;20708;-74
2021/01/30 02:14:01;;;;;;;1.27;1.05;;;6.00;99.90;;;;;;4985489;28;20098;-74
2021/01/30 02:16:49;;;;;;;1.05;0.57;;;6.10;99.90;;;;;;4978635;28;20081;-73
2021/01/30 02:19:30;;;;;;;0.20;0.13;;;6.00;99.90;;;;;;4983319;28;20082;-74
2021/01/30 02:22:17;;;;;;;1.02;0.40;;;6.00;99.90;;;;;;4967776;28;20107;-72
2021/01/30 02:24:58;;;;;;;0.50;0.20;;;6.10;99.90;;;;;;4978010;28;20097;-73
2021/01/30 02:28:01;;;;;;;2.03;0.55;;;6.10;99.90;;;;;;4966038;28;20094;-73
2021/01/30 02:30:42;;;;;;;1.42;0.20;;;6.20;99.90;;;;;;4968740;28;20431;-74
2021/01/30 02:33:33;;;;;;;1.55;0.30;;;6.10;99.90;;;;;;4974059;28;20162;-74
2021/01/30 02:36:24;;;;;;;0.45;0.20;;;6.10;99.90;;;;;;4976977;28;20079;-73
2021/01/30 02:39:27;;;;;;;0.50;0.30;;;6.10;99.90;;;;;;4967220;28;20451;-74
2021/01/30 02:42:12;;;;;;;2.08;0.40;;;6.10;99.90;;;;;;4973024;28;20589;-74
2021/01/30 02:44:43;;;;;;;0.38;0.20;;;6.00;99.90;;;;;;4968237;28;20496;-74
2021/01/30 02:47:11;;;;;;;1.17;0.30;;;5.90;99.90;;;;;;4967672;28;20137;-73
2021/01/30 02:49:42;;;;;;;1.85;0.32;;;5.80;99.90;;;;;;4969490;28;20170;-74
2021/01/30 02:52:13;;;;;;;1.45;0.20;;;5.80;99.90;;;;;;4972330;28;20071;-74
2021/01/30 02:54:40;;;;;;;1.15;0.50;;;5.80;99.90;;;;;;4982021;28;20181;-73
2021/01/30 02:57:12;;;;;;;0.47;0.20;;;5.80;99.90;;;;;;4975901;28;20083;-74
2021/01/30 02:59:46;;;;;;;0.47;0.30;;;5.80;99.90;;;;;;4969015;28;20142;-74
2021/01/30 03:02:12;;;;;;;1.73;0.22;;;5.80;99.90;;;;;;4979810;28;20476;-73
2021/01/30 03:04:38;;;;;;;1.17;0.30;;;5.80;99.90;;;;;;4978585;28;20118;-73
2021/01/30 03:07:28;;;;;;;1.02;0.30;;;5.80;99.90;;;;;;4969238;28;20150;-74
2021/01/30 03:10:26;;;;;;;0.15;0.15;;;5.80;99.90;;;;;;4975951;28;20510;-74
2021/01/30 03:13:03;;;;;;;0.60;0.20;;;5.80;99.90;;;;;;4969098;28;20626;-74
2021/01/30 03:15:35;;;;;;;0.82;0.30;;;5.80;99.90;;;;;;4967302;28;20226;-74
2021/01/30 03:18:03;;;;;;;0.88;0.30;;;5.80;99.90;;;;;;4968640;28;20184;-74
2021/01/30 03:20:31;;;;;;;1.42;0.25;;;5.80;99.90;;;;;;4980836;28;20078;-73
2021/01/30 03:22:59;;;;;;;0.28;0.17;;;5.80;99.90;;;;;;4983715;28;20079;-74
2021/01/30 03:25:26;;;;;;;1.27;0.35;;;5.80;99.90;;;;;;4974130;28;20474;-74
2021/01/30 03:27:55;;;;;;;1.13;0.60;;;5.80;99.90;;;;;;4968694;28;20095;-74
2021/01/30 03:30:22;;;;;;;1.00;0.25;;;5.80;99.90;;;;;;4968622;28;20133;-74
2021/01/30 03:32:48;;;;;;;1.52;0.82;;;5.80;99.90;;;;;;4975858;28;20908;-74
2021/01/30 03:35:14;;;;;;;1.05;0.40;;;5.80;99.90;;;;;;4996957;28;20094;-74
2021/01/30 03:37:40;;;;;;;2.78;0.40;;;5.80;99.90;;;;;;4977698;28;20174;-73
2021/01/30 03:40:07;;;;;;;1.33;0.30;;;5.80;99.90;;;;;;4966923;28;20506;-74
2021/01/30 03:42:33;;;;;;;0.22;0.15;;;5.90;99.90;;;;;;4974475;28;20428;-74
2021/01/30 03:44:59;;;;;;;1.00;0.20;;;5.90;99.90;;;;;;4966754;28;20105;-74
2021/01/30 03:47:24;;;;;;;0.28;0.15;;;5.90;99.90;;;;;;4966669;28;20095;-74
2021/01/30 03:49:50;;;;;;;0.70;0.20;;;5.80;99.90;;;;;;4967844;28;20075;-73
2021/01/30 03:52:16;;;;;;;1.00;0.30;;;5.90;99.90;;;;;;4983814;28;20094;-74
2021/01/30 03:54:41;;;;;;;0.73;0.10;;;5.80;99.90;;;;;;4986159;28;20087;-74
2021/01/30 03:57:07;;;;;;;0.15;0.15;;;5.80;99.90;;;;;;4984967;28;20170;-74
2021/01/30 03:59:33;;;;;;;0.63;0.20;;;5.80;99.90;;;;;;4982781;28;20234;-74
2021/01/30 04:01:58;;;;;;;0.35;0.20;;;5.80;99.90;;;;;;4977953;28;20074;-74
2021/01/30 04:04:24;;;;;;;0.88;0.20;;;5.70;99.90;;;;;;4990993;28;20138;-74
2021/01/30 04:06:51;;;;;;;0.20;0.10;;;5.80;99.90;;;;;;4974027;28;20158;-74
2021/01/30 04:09:19;;;;;;;0.30;0.10;;;5.80;99.90;;;;;;4979773;28;20553;-74
2021/01/30 04:11:45;;;;;;;0.52;0.10;;;5.70;99.90;;;;;;4978392;28;20165;-74
2021/01/30 04:14:10;;;;;;;0.10;0.10;;;5.70;99.90;;;;;;4968474;28;20091;-74
2021/01/30 04:16:36;;;;;;;0.40;0.10;;;5.70;99.90;;;;;;4971181;28;20094;-74
2021/01/30 04:19:02;;;;;;;0.70;0.30;;;5.80;99.90;;;;;;4976436;28;20093;-74
2021/01/30 04:21:28;;;;;;;0.63;0.30;;;5.80;99.90;;;;;;4975397;28;20079;-73
2021/01/30 04:23:54;;;;;;;0.50;0.20;;;5.80;99.90;;;;;;4986210;28;20099;-73
2021/01/30 04:26:19;;;;;;;1.85;0.25;;;5.70;99.90;;;;;;4981011;28;20184;-74
2021/01/30 04:28:48;;;;;;;0.50;0.10;;;5.80;99.90;;;;;;4976098;28;20102;-74
2021/01/30 04:31:13;;;;;;;0.55;0.20;;;5.80;99.90;;;;;;4975531;28;20085;-74
2021/01/30 04:33:39;;;;;;;1.67;0.20;;;5.80;99.90;;;;;;4972866;28;20166;-74
2021/01/30 04:36:06;;;;;;;1.00;0.38;;;5.90;99.90;;;;;;4987291;28;20225;-74
2021/01/30 04:38:31;;;;;;;0.52;0.52;;;5.90;99.90;;;;;;4970299;28;20086;-73
2021/01/30 04:41:08;;;;;;;1.05;0.28;;;5.90;99.90;;;;;;4970121;28;20082;-74
2021/01/30 04:43:39;;;;;;;2.28;0.40;;;5.90;99.90;;;;;;4974845;28;20090;-72
2021/01/30 04:46:24;;;;;;;0.63;0.25;;;5.90;99.90;;;;;;4971791;28;20137;-74
2021/01/30 04:49:00;;;;;;;;;;;5.90;99.90;;;;;;4970764;28;20103;-74
2021/01/30 04:51:31;;;;;;;0.20;0.20;;;5.90;99.90;;;;;;4969541;28;19962;-74
2021/01/30 04:54:06;;;;;;;0.70;0.40;;;5.80;99.90;;;;;;4970580;28;20126;-74
2021/01/30 04:57:01;;;;;;;4.60;0.45;;;5.90;99.90;;;;;;4971068;28;20079;-74
2021/01/30 04:59:57;;;;;;;1.83;0.30;;;5.90;99.90;;;;;;4974490;28;20087;-73
2021/01/30 05:02:48;;;;;;;1.25;0.55;;;5.90;99.90;;;;;;4971445;28;20114;-74
2021/01/30 05:05:19;;;;;;;0.45;0.40;;;5.90;99.90;;;;;;4972908;28;20117;-74
2021/01/30 05:07:53;;;;;;;2.60;0.30;;;5.90;99.90;;;;;;4970530;28;20113;-74
2021/01/30 05:10:35;;;;;;;0.40;0.22;;;5.90;99.90;;;;;;4969760;28;20083;-73
2021/01/30 05:13:07;;;;;;;1.55;0.60;;;5.90;99.90;;;;;;4970854;28;20083;-73
2021/01/30 05:15:41;;;;;;;0.43;0.30;;;5.90;99.90;;;;;;4968659;28;20463;-73
2021/01/30 05:18:27;;;;;;;3.10;0.52;;;5.90;99.90;;;;;;4968144;28;20441;-74
2021/01/30 05:21:02;;;;;;;1.35;0.20;;;5.90;99.90;;;;;;4969952;28;20091;-73
2021/01/30 05:23:29;;;;;;;2.58;0.40;;;5.90;99.90;;;;;;4972836;28;20794;-74
2021/01/30 05:26:08;;;;;;;2.92;0.32;;;5.90;99.90;;;;;;4976633;28;20157;-73
2021/01/30 05:28:43;;;;;;;1.60;0.38;;;6.00;99.90;;;;;;4971408;28;20213;-74
2021/01/30 05:31:30;;;;;;;1.27;0.20;;;6.00;99.90;;;;;;4978062;28;20505;-74
2021/01/30 05:34:18;;;;;;;1.98;0.50;;;5.90;99.90;;;;;;4971181;28;20547;-74
2021/01/30 05:36:50;;;;;;;2.42;0.43;;;6.00;99.90;;;;;;5003290;28;20113;-74
2021/01/30 05:39:16;;;;;;;4.50;0.98;;;5.90;99.90;;;;;;4975793;28;20110;-74
2021/01/30 05:41:53;;;;;;;2.15;0.60;;;5.90;99.90;;;;;;4989553;28;20109;-74
2021/01/30 05:44:41;;;;;;;1.48;0.45;;;5.90;99.90;;;;;;4969448;28;20107;-74
2021/01/30 05:47:13;;;;;;;1.95;0.40;;;5.90;99.90;;;;;;4971080;28;20110;-74
2021/01/30 05:50:02;;;;;;;3.35;0.98;;;5.90;99.90;;;;;;4969414;28;20134;-74
2021/01/30 05:52:33;;;;;;;6.00;0.93;;;5.90;99.90;;;;;;4970314;28;20072;-73
2021/01/30 05:54:59;;;;;;;5.20;1.38;;;5.90;99.90;;;;;;4970093;28;20110;-74
2021/01/30 05:57:25;;;;;;;5.18;1.38;;;5.90;99.90;;;;;;4969499;28;20087;-74
2021/01/30 05:59:53;;;;;;;3.65;0.93;;;5.90;99.90;;;;;;4976110;28;20574;-74
2021/01/30 06:02:30;;;;;;;4.88;1.60;;;5.90;99.90;;;;;;4978627;28;20083;-74
2021/01/30 06:04:57;;;;;;;3.88;0.70;;;5.90;99.90;;;;;;4977118;28;20146;-74
2021/01/30 06:07:22;;;;;;;3.13;0.60;;;5.90;99.90;;;;;;4975334;28;20091;-74
2021/01/30 06:09:49;;;;;;;3.63;0.30;;;5.90;99.90;;;;;;4968848;28;20451;-73
2021/01/30 06:12:44;;;;;;;1.90;0.45;;;5.90;99.90;;;;;;4975589;28;20091;-73
2021/01/30 06:15:14;;;;;;;4.43;0.95;;;5.90;99.90;;;;;;4955526;28;20567;-74
2021/01/30 06:17:40;;;;;;;3.17;0.82;;;5.80;99.90;;;;;;4968062;28;20083;-74
2021/01/30 06:20:21;;;;;;;3.28;0.60;;;5.80;99.90;;;;;;4968771;28;20629;-74
2021/01/30 06:23:07;;;;;;;2.60;0.60;;;5.80;99.90;;;;;;4971830;28;20551;-74
2021/01/30 06:25:37;;;;;;;3.90;0.70;;;5.80;99.90;;;;;;4968668;28;20091;-74
2021/01/30 06:28:07;;;;;;;2.33;0.70;;;5.80;99.90;;;;;;4987106;28;20164;-73
2021/01/30 06:30:40;;;;;;;3.20;0.70;;;5.70;99.90;;;;;;4969644;28;20079;-74
2021/01/30 06:33:22;;;;;;;3.17;0.80;;;5.80;99.90;;;;;;4967322;28;20484;-74
2021/01/30 06:35:48;;;;;;;2.47;1.20;;;5.80;99.90;;;;;;4966563;28;20181;-74
2021/01/30 06:38:30;;;;;;;2.70;0.98;;;5.80;99.90;;;;;;4976979;28;20162;-74
2021/01/30 06:41:02;;;;;;;4.40;0.75;;;5.80;99.90;;;;;;4968466;28;20610;-73
2021/01/30 06:44:01;;;;;;;3.63;0.40;;;5.80;99.90;;;;;;4970340;28;20584;-74
2021/01/30 06:46:27;;;;;;;2.63;0.40;;;5.80;99.90;;;;;;4978732;28;20075;-73
2021/01/30 06:48:55;;;;;;;6.65;0.85;;;5.80;99.90;;;;;;4982962;28;20106;-74
2021/01/30 06:51:21;;;;;;;2.60;0.47;;;5.80;99.90;;;;;;4970131;28;20078;-73
2021/01/30 06:53:47;;;;;;;2.25;0.43;;;5.80;99.90;;;;;;4988324;28;20078;-74
2021/01/30 06:56:38;;;;;;;4.05;0.95;;;5.80;99.90;;;;;;4984376;28;20083;-74
2021/01/30 06:59:10;;;;;;;2.20;0.50;;;5.80;99.90;;;;;;4966976;28;20665;-74
2021/01/30 07:01:42;;;;;;;2.40;0.70;;;5.80;99.90;;;;;;4979855;28;20107;-74
2021/01/30 07:04:21;;;;;;;1.77;0.50;;;5.80;99.90;;;;;;4978023;28;20110;-74
2021/01/30 07:07:11;;;;;;;4.45;0.73;;;5.80;99.90;;;;;;4977419;28;20102;-74
2021/01/30 07:09:42;;;;;;;3.65;0.90;;;5.80;99.90;;;;;;4977008;28;20615;-73
2021/01/30 07:12:26;;;;;;;2.15;0.80;;;5.80;99.90;;;;;;4986610;28;20079;-74
2021/01/30 07:15:30;;;;;;;5.47;0.95;;;5.90;99.90;;;;;;4967846;28;20094;-74
2021/01/30 07:17:55;;;;;;;3.55;0.98;;;5.80;99.90;;;;;;4979659;28;20110;-74
2021/01/30 07:21:11;;;;;;;4.05;1.00;;;5.80;99.90;;;;;;4979187;28;20113;-74
2021/01/30 07:23:56;;;;;;;2.67;1.10;;;5.80;99.90;;;;;;4951371;28;20087;-74
2021/01/30 07:26:31;;;;;;;2.63;0.88;;;5.90;99.90;;;;;;4969145;28;20079;-74
2021/01/30 07:29:00;;;;;;;5.25;2.03;;;5.80;99.90;;;;;;4971980;28;20189;-74
2021/01/30 07:31:38;;;;;;;3.10;0.85;;;5.80;99.90;;;;;;4969858;28;20107;-74
2021/01/30 07:34:22;;;;;;;2.92;1.25;;;6.00;99.90;;;;;;4973763;28;20217;-74
2021/01/30 07:37:03;;;;;;;5.53;1.65;;;5.90;99.90;;;;;;4975322;28;20079;-74
2021/01/30 07:39:35;;;;;;;3.83;1.00;;;5.90;99.90;;;;;;4975381;28;20170;-74
2021/01/30 07:42:08;;;;;;;2.97;0.68;;;5.90;99.90;;;;;;4969090;28;20150;-74
2021/01/30 07:44:40;;;;;;;5.32;1.00;;;5.90;99.90;;;;;;4971085;28;20157;-74
2021/01/30 07:47:15;;;;;;;2.72;0.70;;;6.00;99.90;;;;;;4991168;28;20098;-73
2021/01/30 07:49:47;;;;;;;3.97;0.50;;;6.00;99.90;;;;;;4972565;28;20071;-74
2021/01/30 07:52:22;;;;;;;3.03;0.77;;;6.00;99.90;;;;;;4972812;28;20075;-74
2021/01/30 07:54:51;;;;;;;1.58;0.40;;;6.00;99.90;;;;;;4976749;28;20115;-74
2021/01/30 07:57:42;;;;;;;4.63;0.60;;;6.00;99.90;;;;;;4970661;28;20471;-74
2021/01/30 08:00:19;;;;;;;1.45;0.45;;;6.10;99.90;;;;;;4992773;28;20132;-74
2021/01/30 08:02:56;;;;;;;4.70;0.90;;;6.10;99.90;;;;;;4993624;28;20092;-74
2021/01/30 08:05:30;;;;;;;3.78;1.00;;;6.10;99.90;;;;;;4997219;28;20098;-74
2021/01/30 08:08:03;;;;;;;2.60;0.95;;;6.10;99.90;;;;;;4971560;28;20099;-74
2021/01/30 08:10:48;;;;;;;2.38;0.90;;;6.10;99.90;;;;;;4971835;28;20079;-74
2021/01/30 08:13:24;;;;;;;6.03;1.52;;;6.20;99.90;;;;;;4983425;28;20121;-74
2021/01/30 08:16:04;;;;;;;4.93;1.40;;;6.20;99.90;;;;;;4971103;28;20083;-74
2021/01/30 08:18:42;;;;;;;5.82;1.00;;;6.20;99.90;;;;;;4975654;28;20071;-75
2021/01/30 08:21:11;;;;;;;5.57;1.00;;;6.20;99.90;;;;;;4970134;28;20078;-74
2021/01/30 08:24:02;;;;;;;5.80;1.90;;;6.20;99.90;;;;;;4982521;28;20140;-73
2021/01/30 08:26:53;;;;;;;6.57;1.23;;;6.30;99.90;;;;;;4980710;28;20083;-74
2021/01/30 08:29:38;;;;;;;3.55;1.13;;;6.30;99.90;;;;;;4983900;28;20105;-75
2021/01/30 08:32:25;;;;;;;4.40;1.30;;;6.30;99.90;;;;;;4991049;28;20081;-75
2021/01/30 08:34:55;;;;;;;4.90;1.38;;;6.30;99.90;;;;;;4987859;28;20595;-74
2021/01/30 08:37:27;;;;;;;6.72;1.98;;;6.40;99.90;;;;;;4985720;28;20166;-74
2021/01/30 08:40:01;;;;;;;2.33;1.15;;;6.40;99.90;;;;;;4977784;28;20083;-74
2021/01/30 08:42:29;;;;;;;3.30;0.85;;;6.40;99.90;;;;;;4972329;28;20137;-74
2021/01/30 08:44:56;;;;;;;5.10;1.00;;;6.50;99.90;;;;;;4988571;28;20103;-75
2021/01/30 08:47:44;;;;;;;7.85;0.80;;;6.40;99.90;;;;;;4991459;28;20083;-74
2021/01/30 08:50:32;;;;;;;4.28;0.90;;;6.40;99.90;;;;;;4968990;28;20161;-74
2021/01/30 08:53:18;;;;;;;5.32;1.42;;;6.40;99.90;;;;;;4982032;28;20098;-75
2021/01/30 08:55:46;;;;;;;11.02;1.65;;;6.40;99.90;;;;;;4971732;28;20606;-74
2021/01/30 08:58:36;;;;;;;6.78;1.48;;;6.50;99.90;;;;;;4972902;28;20145;-74
2021/01/30 09:01:10;;;;;;;6.32;1.20;;;6.50;99.90;;;;;;4980796;28;20093;-74
2021/01/30 09:03:56;;;;;;;7.18;3.08;;;6.50;99.90;;;;;;4988220;28;20096;-74
2021/01/30 09:06:40;;;;;;;4.75;0.88;;;6.50;99.90;;;;;;4985883;28;20145;-72
2021/01/30 09:09:15;;;;;;;2.78;1.02;;;6.60;99.90;;;;;;5003188;28;20584;-74
2021/01/30 09:11:42;;;;;;;5.15;1.35;;;6.50;99.90;;;;;;4989529;28;20067;-77
2021/01/30 09:14:17;;;;;;;4.47;1.63;;;6.60;99.90;;;;;;4972676;28;20091;-76
2021/01/30 09:16:57;;;;;;;6.30;1.30;;;6.60;99.90;;;;;;4982683;28;20542;-74
2021/01/30 09:19:45;;;;;;;4.07;1.35;;;6.60;99.90;;;;;;4985848;28;20079;-75
2021/01/30 09:22:24;;;;;;;7.43;1.75;;;6.70;99.90;;;;;;4977721;28;20141;-75
2021/01/30 09:24:56;;;;;;;5.07;1.83;;;6.60;99.90;;;;;;4975951;28;20121;-76
2021/01/30 09:27:30;;;;;;;6.45;0.98;;;6.70;99.90;;;;;;4987325;28;20083;-76
2021/01/30 09:30:10;;;;;;;8.90;1.40;;;6.80;99.90;;;;;;4978462;28;20075;-76
2021/01/30 09:32:44;;;;;;;6.88;1.83;;;6.80;99.90;;;;;;4987391;28;20101;-76
2021/01/30 09:35:21;;;;;;;4.55;1.15;;;6.90;99.90;;;;;;4989980;28;20091;-76
2021/01/30 09:37:47;;;;;;;5.40;1.10;;;6.90;99.90;;;;;;5006850;28;20082;-76
2021/01/30 09:40:29;;;;;;;7.78;1.52;;;7.00;99.90;;;;;;5009584;28;20093;-78
2021/01/30 09:43:04;;;;;;;2.95;1.42;;;7.00;99.90;;;;;;5002332;28;20105;-79
2021/01/30 09:45:30;;;;;;;;;;;7.00;99.90;;;;;;4983652;28;20470;-77
2021/01/30 09:47:58;;;;;;;6.38;2.08;;;7.00;99.90;;;;;;4998548;28;19992;-77
2021/01/30 09:50:38;;;;;;;9.38;3.58;;;7.00;99.90;;;;;;4986952;28;20161;-76
2021/01/30 09:53:09;;;;;;;6.65;1.42;;;7.00;99.90;;;;;;4985871;28;20535;-77
2021/01/30 09:55:35;;;;;;;4.25;1.20;;;7.00;99.90;;;;;;4969632;28;20182;-74
2021/01/30 09:58:10;;;;;;;11.88;2.22;;;7.00;99.90;;;;;;4983899;28;20558;-75
2021/01/30 10:00:42;;;;;;;4.15;1.05;;;6.90;99.90;;;;;;4986353;28;20090;-74
2021/01/30 10:03:16;;;;;;;3.45;1.45;;;6.90;99.90;;;;;;4972432;28;20390;-73
2021/01/30 10:05:42;;;;;;;;;;;7.00;99.90;;;;;;4973964;28;21097;-73
2021/01/30 10:08:24;;;;;;;7.45;2.17;;;7.00;99.90;;;;;;4969496;28;20125;-73
2021/01/30 10:11:07;;;;;;;6.13;2.33;;;7.00;99.90;;;;;;4973085;28;20079;-73
2021/01/30 10:13:35;;;;;;;2.55;1.05;;;7.00;99.90;;;;;;4969157;28;20079;-75
2021/01/30 10:16:03;;;;;;;5.82;1.52;;;7.10;99.90;;;;;;4967412;28;20071;-73
2021/01/30 10:18:33;;;;;;;6.45;2.08;;;7.10;99.90;;;;;;4978917;28;20079;-72
2021/01/30 10:21:01;;;;;;;4.30;1.80;;;7.10;99.90;;;;;;4945324;28;20083;-73
2021/01/30 10:23:48;;;;;;;6.05;3.25;;;7.20;99.90;;;;;;4977902;28;20537;-73
2021/01/30 10:26:22;;;;;;;4.05;1.27;;;7.20;99.90;;;;;;4968470;28;20075;-73
2021/01/30 10:28:50;;;;;;;7.13;1.55;;;7.20;99.90;;;;;;4996524;28;20090;-73
2021/01/30 10:31:21;;;;;;;6.60;1.40;;;7.20;99.90;;;;;;4999130;28;20415;-73
2021/01/30 10:33:52;;;;;;;7.05;1.23;;;7.20;99.90;;;;;;4989811;28;20124;-72
2021/01/30 10:36:19;;;;;;;4.50;1.45;;;7.30;99.90;;;;;;4989998;28;20144;-73
2021/01/30 10:38:47;;;;;;;8.48;1.92;;;7.30;99.90;;;;;;4992410;28;20094;-73
2021/01/30 10:41:18;;;;;;;3.30;1.60;;;7.30;99.90;;;;;;4983951;28;20138;-73
2021/01/30 10:43:46;;;;;;;5.72;1.50;;;7.30;99.90;;;;;;4969628;28;20087;-72
2021/01/30 10:46:29;;;;;;;8.00;3.25;;;7.40;99.90;;;;;;4967720;28;20146;-73
2021/01/30 10:49:06;;;;;;;6.82;2.97;;;7.50;99.90;;;;;;4975421;28;20172;-73
2021/01/30 10:51:34;;;;;;;7.43;1.85;;;7.50;99.90;;;;;;4974943;28;20161;-72
2021/01/30 10:54:22;;;;;;;6.13;1.60;;;7.60;99.90;;;;;;4981884;28;20515;-72
2021/01/30 10:57:06;;;;;;;6.25;2.65;;;7.50;99.90;;;;;;4975413;28;20077;-72
2021/01/30 10:59:53;;;;;;;5.03;0.82;;;7.60;99.90;;;;;;4989931;28;20071;-73
2021/01/30 11:02:39;;;;;;;6.07;1.30;;;7.60;99.90;;;;;;4971696;28;20126;-74
2021/01/30 11:05:10;;;;;;;4.63;0.95;;;7.60;99.90;;;;;;4972361;28;20110;-72
2021/01/30 11:07:44;;;;;;;8.10;1.40;;;7.60;99.90;;;;;;4983322;28;20125;-74
2021/01/30 11:10:40;;;;;;;6.35;1.35;;;7.80;99.90;;;;;;4984951;28;20453;-72
2021/01/30 11:13:08;;;;;;;5.90;1.33;;;7.80;99.90;;;;;;4976161;28;20076;-72
2021/01/30 11:15:34;;;;;;;4.75;1.30;;;7.90;99.90;;;;;;4967382;28;20095;-74
2021/01/30 11:18:30;;;;;;;3.00;0.80;;;7.90;99.90;;;;;;4967608;28;20563;-73
2021/01/30 11:20:57;;;;;;;4.80;0.90;;;8.00;99.90;;;;;;4975711;28;20162;-73
2021/01/30 11:23:42;;;;;;;5.30;1.08;;;8.10;99.90;;;;;;4967966;28;20091;-72
2021/01/30 11:26:30;;;;;;;5.53;2.05;;;8.20;99.90;;;;;;4980549;28;20124;-72
2021/01/30 11:28:57;;;;;;;4.32;0.80;;;8.30;99.90;;;;;;4974452;28;20625;-73
2021/01/30 11:31:23;;;;;;;6.82;2.50;;;8.30;99.90;;;;;;4982914;28;20621;-73
2021/01/30 11:33:52;;;;;;;4.60;0.60;;;8.30;99.90;;;;;;4978780;28;20129;-71
2021/01/30 11:36:18;;;;;;;3.17;0.75;;;8.30;99.90;;;;;;4982986;28;20166;-74
2021/01/30 11:38:54;;;;;;;5.30;1.08;;;8.30;99.80;;;;;;4984923;28;20082;-72
2021/01/30 11:41:20;;;;;;;6.88;0.75;;;8.30;99.90;;;;;;4971145;28;20083;-73
2021/01/30 11:43:46;;;;;;;5.10;0.80;;;8.40;99.90;;;;;;4978416;28;20109;-71
2021/01/30 11:46:11;;;;;;;4.15;0.82;;;8.50;99.90;;;;;;4984520;28;20079;-72
2021/01/30 11:48:37;;;;;;;4.82;2.05;;;8.50;99.40;;;;;;4985741;28;20098;-71
2021/01/30 11:51:03;;;;;;;6.18;0.98;;;8.50;99.90;;;;;;4981320;28;20141;-72
2021/01/30 11:53:30;;;;;;;6.28;0.95;;;8.50;99.90;;;;;;4983681;28;20099;-71
2021/01/30 11:55:56;;;;;;;7.03;1.23;;;8.60;99.90;;;;;;4991331;28;20087;-71
2021/01/30 11:58:22;;;;;;;7.20;1.80;;;8.50;98.30;;;;;;4983330;28;20106;-72
2021/01/30 12:00:49;;;;;;;4.03;1.10;;;8.50;99.00;;;;;;4980066;28;20542;-73
2021/01/30 12:03:28;;;;;;;9.95;1.70;;;8.40;99.80;;;;;;4969892;28;20122;-74
2021/01/30 12:05:55;;;;;;;6.80;1.40;;;8.40;99.90;;;;;;4968025;28;20641;-71
2021/01/30 12:08:21;;;;;;;4.85;1.20;;;8.40;99.90;;;;;;4968693;28;20463;-72
2021/01/30 12:10:46;;;;;;;3.47;0.73;;;8.40;99.90;;;;;;4966139;28;20071;-74
2021/01/30 12:13:12;;;;;;;5.28;1.33;;;8.40;99.90;;;;;;4985716;28;20075;-72
2021/01/30 12:15:38;;;;;;;6.30;1.05;;;8.40;99.90;;;;;;4975361;28;20095;-72
2021/01/30 12:18:13;;;;;;;5.05;1.02;;;8.40;99.80;;;;;;4969343;28;20080;-72
2021/01/30 12:20:41;;;;;;;4.03;0.82;;;8.40;99.60;;;;;;4978370;28;20514;-73
2021/01/30 12:23:07;;;;;;;9.75;2.90;;;8.30;99.90;;;;;;4969914;28;20640;-73
2021/01/30 12:25:32;;;;;;;7.25;1.48;;;8.20;99.90;;;;;;4970901;28;20157;-71
2021/01/30 12:28:03;;;;;;;5.53;1.63;;;8.20;99.90;;;;;;4968906;28;20154;-74
2021/01/30 12:30:32;;;;;;;8.70;1.60;;;8.20;99.90;;;;;;4988945;28;20079;-73
2021/01/30 12:32:58;;;;;;;4.82;1.00;;;8.20;99.90;;;;;;4986999;28;20083;-72
2021/01/30 12:35:26;;;;;;;7.95;1.38;;;8.10;99.90;;;;;;4975893;28;20793;-72
2021/01/30 12:37:52;;;;;;;4.97;1.15;;;8.10;99.90;;;;;;4979836;28;20115;-73
2021/01/30 12:40:22;;;;;;;3.83;0.68;;;8.00;99.90;;;;;;4979169;28;20536;-73
2021/01/30 12:42:48;;;;;;;3.60;0.70;;;8.00;99.90;;;;;;5002334;28;20204;-73
2021/01/30 12:45:14;;;;;;;2.67;0.63;;;8.10;99.90;;;;;;4993398;28;20110;-73
2021/01/30 12:47:41;;;;;;;2.20;0.90;;;8.10;99.90;;;;;;4987050;28;20146;-74
2021/01/30 12:50:08;;;;;;;5.82;1.50;;;8.10;99.90;;;;;;4971656;28;20159;-72
2021/01/30 12:52:34;;;;;;;5.80;1.10;;;8.10;99.90;;;;;;4974128;28;20229;-74
2021/01/30 12:55:00;;;;;;;8.68;1.77;;;8.10;99.90;;;;;;4988538;28;20102;-73
2021/01/30 12:57:25;;;;;;;6.60;1.00;;;8.20;99.90;;;;;;4988121;28;20079;-72
2021/01/30 12:59:51;;;;;;;4.82;1.00;;;8.10;99.90;;;;;;4982128;28;20083;-73
2021/01/30 13:02:16;;;;;;;5.45;1.08;;;8.10;99.90;;;;;;4979814;28;20110;-75
2021/01/30 13:04:42;;;;;;;7.80;0.85;;;8.00;99.90;;;;;;4986759;28;20102;-74
2021/01/30 13:07:07;;;;;;;5.20;1.40;;;8.10;99.90;;;;;;4988754;28;20083;-72
2021/01/30 13:09:34;;;;;;;5.97;1.00;;;8.10;99.90;;;;;;4984632;28;20086;-76
2021/01/30 13:12:00;;;;;;;2.83;0.80;;;8.10;99.90;;;;;;4980271;28;20075;-74
2021/01/30 13:14:26;;;;;;;5.57;1.67;;;8.10;99.90;;;;;;4977507;28;20095;-74
2021/01/30 13:16:52;;;;;;;10.05;1.20;;;8.20;99.90;;;;;;4982482;28;20151;-72
2021/01/30 13:19:17;;;;;;;8.27;1.38;;;8.20;99.90;;;;;;4984446;28;20423;-72
2021/01/30 13:21:48;;;;;;;7.38;1.27;;;8.10;99.90;;;;;;4991243;28;20077;-72
2021/01/30 13:24:14;;;;;;;3.72;1.17;;;8.10;99.90;;;;;;4982445;28;20161;-72
2021/01/30 13:26:40;;;;;;;6.07;1.13;;;8.10;99.90;;;;;;4991269;28;20547;-72
2021/01/30 13:29:18;;;;;;;3.85;1.13;;;8.00;99.90;;;;;;4993175;28;20147;-73